createdAt,value
2022-09-24T00:00:02.568Z,10
2022-09-24T00:20:03.072Z,9.8
2022-09-24T00:40:02.473Z,9.8
2022-09-24T01:00:02.897Z,9.8
2022-09-24T01:20:02.645Z,9.6
2022-09-24T01:40:02.990Z,9.4
2022-09-24T02:00:02.479Z,9.4
2022-09-24T02:20:03.016Z,9.4
2022-09-24T02:40:02.406Z,9.3
2022-09-24T03:00:02.881Z,9.4
2022-09-24T03:20:03.221Z,9.4
2022-09-24T03:40:02.716Z,9.5
2022-09-24T04:00:03.259Z,9.5
2022-09-24T04:20:02.740Z,9.5
2022-09-24T04:40:03.332Z,9.5
2022-09-24T05:00:02.707Z,9.5
2022-09-24T05:20:03.116Z,9.5
2022-09-24T05:40:02.698Z,9.5
2022-09-24T06:00:02.221Z,9.9
2022-09-24T06:20:02.914Z,10.4
2022-09-24T06:40:02.526Z,10.6
2022-09-24T07:00:02.828Z,11
2022-09-24T07:20:02.317Z,11.3
2022-09-24T07:40:02.719Z,11.6
2022-09-24T08:00:03.207Z,11.8
2022-09-24T08:20:03.063Z,12
2022-09-24T08:40:02.532Z,12.2
2022-09-24T09:00:02.818Z,12.8
2022-09-24T09:20:03.043Z,13.2
2022-09-24T09:40:02.564Z,13.8
2022-09-24T10:00:03.162Z,15.1
2022-09-24T10:20:03.043Z,15.3
2022-09-24T10:40:02.595Z,15.4
2022-09-24T11:00:03.154Z,15.5
2022-09-24T11:20:02.699Z,15.6
2022-09-24T11:40:02.944Z,16
2022-09-24T12:00:02.482Z,16.7
2022-09-24T12:20:02.241Z,16.9
2022-09-24T12:40:02.654Z,16.8
2022-09-24T13:00:03.106Z,16.8
2022-09-24T13:20:02.499Z,16.8
2022-09-24T13:40:02.743Z,16.5
2022-09-24T14:00:02.120Z,16.5
2022-09-24T14:20:02.797Z,16.5
2022-09-24T14:40:02.601Z,16.5
2022-09-24T15:00:07.309Z,16.4
2022-09-24T15:20:02.980Z,16.3
2022-09-24T15:40:02.551Z,16.1
2022-09-24T16:00:03.209Z,15.7
2022-09-24T16:20:02.699Z,15.5
2022-09-24T16:40:02.367Z,15.2
2022-09-24T17:00:03.615Z,14.9
2022-09-24T17:20:02.947Z,14.6
2022-09-24T17:40:02.546Z,14.2
2022-09-24T18:00:03.045Z,14
2022-09-24T18:20:02.512Z,13.8
2022-09-24T18:40:08.081Z,13.5
2022-09-24T19:00:03.442Z,13.5
2022-09-24T19:20:03.161Z,13.2
2022-09-24T19:40:02.653Z,13.2
2022-09-24T20:00:09.942Z,13.1
2022-09-24T20:20:02.323Z,13
2022-09-24T20:40:02.847Z,12.8
2022-09-24T21:00:02.301Z,12.8
2022-09-24T21:20:03.103Z,12.7
2022-09-24T21:40:02.843Z,12.7
2022-09-24T22:00:02.378Z,12.6
2022-09-24T22:20:02.981Z,12.4
2022-09-24T22:40:02.578Z,12.4
2022-09-24T23:00:03.054Z,12.5
2022-09-24T23:20:02.841Z,12.5
2022-09-24T23:40:03.190Z,12.3
